Time;durP1;ratioP1;P1;durP2;ratioP2;P2;SDS_P1;SDS_P2;PMS_P1;PMS_P2;Temp;Humidity;BMP_temperature;BMP_pressure;BME280_temperature;BME280_humidity;BME280_pressure;Samples;Min_cycle;Max_cycle;Signal;HPM_P1;HPM_P2
2021/10/24 00:02:11;;;;;;;13.43;6.80;;;;;;;9.89;59.62;102683.72;4854023;29;114528;-62
2021/10/24 00:04:38;;;;;;;12.73;6.88;;;;;;;9.87;59.71;102684.59;4852074;29;114202;-62
2021/10/24 00:07:05;;;;;;;12.77;7.65;;;;;;;9.83;59.61;102681.16;4845087;29;124536;-62
2021/10/24 00:09:32;;;;;;;13.20;6.88;;;;;;;9.82;60.06;102682.03;4849180;29;123450;-62
2021/10/24 00:12:00;;;;;;;17.27;7.03;;;;;;;9.80;59.86;102683.81;4850162;29;114357;-62
2021/10/24 00:14:27;;;;;;;16.55;6.90;;;;;;;9.78;59.56;102675.03;4846670;29;114390;-62
2021/10/24 00:16:55;;;;;;;13.50;7.10;;;;;;;9.77;59.67;102688.28;4847802;29;124300;-62
2021/10/24 00:19:22;;;;;;;11.90;6.82;;;;;;;9.72;59.60;102680.41;4845844;29;124354;-62
2021/10/24 00:21:49;;;;;;;11.63;6.72;;;;;;;9.70;59.86;102682.16;4848499;28;113274;-62
2021/10/24 00:24:16;;;;;;;13.23;6.65;;;;;;;9.67;59.90;102671.63;4850938;29;113628;-62
2021/10/24 00:26:44;;;;;;;13.23;6.75;;;;;;;9.66;59.82;102680.44;4852811;28;123024;-62
2021/10/24 00:29:11;;;;;;;10.48;6.45;;;;;;;9.65;59.91;102678.72;4847859;29;124260;-62
2021/10/24 00:31:38;;;;;;;12.15;6.70;;;;;;;9.62;59.54;102673.44;4853450;29;115913;-62
2021/10/24 00:34:05;;;;;;;13.02;6.35;;;;;;;9.60;59.95;102673.47;4848227;29;114586;-62
2021/10/24 00:36:33;;;;;;;10.77;6.60;;;;;;;9.59;59.89;102678.75;4844257;29;123744;-62
2021/10/24 00:39:00;;;;;;;13.32;6.80;;;;;;;9.55;59.70;102673.53;4855656;29;124128;-62
2021/10/24 00:41:30;;;;;;;9.57;6.40;;;;;;;9.53;59.86;102675.31;4854049;29;114314;-62
2021/10/24 00:43:59;;;;;;;12.98;6.53;;;;;;;9.51;59.71;102671.81;4850187;29;113028;-62
2021/10/24 00:46:26;;;;;;;11.88;6.70;;;;;;;9.50;59.82;102669.19;4851632;29;124079;-62
2021/10/24 00:48:59;;;;;;;11.85;6.53;;;;;;;9.46;59.92;102668.34;4849551;29;124250;-62
2021/10/24 00:51:27;;;;;;;13.27;6.78;;;;;;;9.43;59.73;102668.34;4853403;29;113555;-62
2021/10/24 00:53:55;;;;;;;11.32;6.50;;;;;;;9.40;59.76;102663.13;4847896;28;113413;-62
2021/10/24 00:56:22;;;;;;;10.02;6.25;;;;;;;9.37;59.93;102663.16;4847098;29;124024;-62
2021/10/24 00:58:50;;;;;;;13.50;6.78;;;;;;;9.35;60.05;102655.22;4838865;29;125029;-62
2021/10/24 01:01:18;;;;;;;11.98;6.53;;;;;;;9.35;60.00;102659.66;4850513;29;115004;-62
2021/10/24 01:03:46;;;;;;;11.05;6.07;;;;;;;9.32;59.73;102659.66;4853510;28;114056;-63
2021/10/24 01:06:13;;;;;;;9.27;6.03;;;;;;;9.31;59.88;102664.09;4848671;29;125448;-62
2021/10/24 01:08:40;;;;;;;10.32;6.03;;;;;;;9.30;59.79;102661.44;4852993;29;122825;-62
2021/10/24 01:11:07;;;;;;;13.73;6.80;;;;;;;9.27;60.06;102656.22;4846803;29;114569;-62
2021/10/24 01:13:35;;;;;;;13.27;6.45;;;;;;;9.26;59.80;102654.44;4851656;29;113010;-62
2021/10/24 01:16:15;;;;;;;11.23;6.28;;;;;;;9.23;60.10;102649.19;4845885;29;123312;-62
2021/10/24 01:18:44;;;;;;;11.32;6.63;;;;;;;9.22;59.79;102652.72;4854222;29;122989;-63
2021/10/24 01:21:13;;;;;;;11.68;6.47;;;;;;;9.19;59.95;102648.34;4854394;28;114382;-62
2021/10/24 01:23:41;;;;;;;10.50;6.35;;;;;;;9.18;59.83;102648.38;4853592;29;114410;-62
2021/10/24 01:26:08;;;;;;;10.55;5.72;;;;;;;9.15;60.04;102652.81;4849948;29;124254;-62
2021/10/24 01:28:36;;;;;;;13.93;6.40;;;;;;;9.13;60.14;102645.75;4847466;29;124242;-62
2021/10/24 01:31:03;;;;;;;11.18;6.00;;;;;;;9.11;59.92;102645.75;4855718;29;114314;-62
2021/10/24 01:33:32;;;;;;;12.30;6.47;;;;;;;9.09;60.27;102642.28;4836479;29;113225;-62
2021/10/24 01:36:05;;;;;;;14.43;6.75;;;;;;;9.08;59.88;102643.19;4845856;28;123004;-62
2021/10/24 01:38:33;;;;;;;9.73;5.93;;;;;;;9.06;59.96;102639.69;4851987;29;122639;-62
2021/10/24 01:41:01;;;;;;;12.05;5.97;;;;;;;9.04;60.09;102638.81;4855046;29;114308;-62
2021/10/24 01:43:29;;;;;;;10.98;6.18;;;;;;;9.02;59.94;102635.28;4852221;29;113677;-62
2021/10/24 01:45:56;;;;;;;14.68;5.82;;;;;;;9.00;59.90;102631.78;4848642;29;124129;-62
2021/10/24 01:48:24;;;;;;;10.52;6.40;;;;;;;8.99;60.16;102629.19;4855454;28;123008;-62
2021/10/24 01:50:54;;;;;;;13.10;6.45;;;;;;;8.97;60.09;102623.91;4848674;29;114189;-62
2021/10/24 01:53:28;;;;;;;11.35;6.10;;;;;;;8.95;59.85;102620.41;4851860;28;113135;-62
2021/10/24 01:55:55;;;;;;;10.70;5.88;;;;;;;8.92;60.15;102623.06;4850344;29;123293;-62
2021/10/24 01:58:25;;;;;;;12.30;5.95;;;;;;;8.90;60.20;102614.28;4847979;28;123042;-62
2021/10/24 02:00:53;;;;;;;11.52;6.22;;;;;;;8.87;59.86;102614.28;4852835;28;113399;-62
2021/10/24 02:03:27;;;;;;;12.45;6.20;;;;;;;8.85;60.02;102605.50;4850148;28;115601;-62
2021/10/24 02:06:13;;;;;;;;;;;;;;;8.81;59.91;102620.50;4854390;29;124944;-61
2021/10/24 02:08:40;;;;;;;12.05;6.20;;;;;;;8.81;59.98;102614.34;4850840;29;125086;-61
2021/10/24 02:11:11;;;;;;;11.05;5.82;;;;;;;8.79;59.98;102613.50;4849885;29;114452;-62
2021/10/24 02:13:38;;;;;;;11.73;5.53;;;;;;;8.75;59.87;102605.59;4850489;29;115040;-62
2021/10/24 02:16:07;;;;;;;11.30;6.03;;;;;;;8.74;60.21;102598.56;4851992;29;122944;-63
2021/10/24 02:18:38;;;;;;;10.43;6.18;;;;;;;8.73;60.16;102607.38;4848406;29;123987;-62
2021/10/24 02:21:06;;;;;;;10.73;6.47;;;;;;;8.71;60.32;102593.31;4849530;29;113933;-62
2021/10/24 02:23:36;;;;;;;9.05;5.88;;;;;;;8.71;60.03;102592.44;4845498;28;113153;-62
2021/10/24 02:26:04;;;;;;;9.80;6.00;;;;;;;8.69;60.27;102595.09;4849038;29;122825;-62
2021/10/24 02:28:32;;;;;;;9.55;5.55;;;;;;;8.68;60.19;102593.34;4850785;28;122857;-62
2021/10/24 02:31:00;;;;;;;10.10;5.85;;;;;;;8.68;60.15;102592.44;4851654;28;113269;-62
2021/10/24 02:33:47;;;;;;;12.23;6.10;;;;;;;8.66;60.09;102584.53;4851090;29;113135;-62
2021/10/24 02:36:37;;;;;;;10.63;5.82;;;;;;;8.64;60.21;102581.03;4852156;29;124639;-62
2021/10/24 02:39:05;;;;;;;10.63;6.07;;;;;;;8.64;60.04;102580.16;4858088;28;122847;-62
2021/10/24 02:41:38;;;;;;;9.65;5.68;;;;;;;8.62;60.13;102572.25;4847906;29;113827;-62
2021/10/24 02:44:07;;;;;;;10.20;6.18;;;;;;;8.60;60.18;102570.53;4855541;28;113105;-62
2021/10/24 02:46:44;;;;;;;10.02;5.88;;;;;;;8.59;60.30;102561.75;4856554;29;124024;-62
2021/10/24 02:49:12;;;;;;;12.18;5.82;;;;;;;8.59;60.54;102567.03;4855381;28;123112;-62
2021/10/24 02:51:53;;;;;;;10.70;5.85;;;;;;;8.56;60.24;102567.03;4849677;28;112522;-62
2021/10/24 02:54:21;;;;;;;7.95;5.03;;;;;;;8.56;60.15;102561.75;4856868;28;112970;-62
2021/10/24 02:56:50;;;;;;;13.82;6.28;;;;;;;8.53;60.58;102567.94;4855213;28;123105;-62
2021/10/24 02:59:18;;;;;;;8.80;5.68;;;;;;;8.53;60.45;102556.50;4850932;29;123693;-62
2021/10/24 03:01:46;;;;;;;11.15;5.70;;;;;;;8.52;60.51;102560.03;4844056;29;115196;-62
2021/10/24 03:04:14;;;;;;;8.70;5.18;;;;;;;8.51;60.47;102555.63;4843247;29;114935;-62
2021/10/24 03:06:46;;;;;;;12.25;5.85;;;;;;;8.51;60.42;102558.28;4845231;29;123285;-62
2021/10/24 03:09:13;;;;;;;10.13;5.60;;;;;;;8.49;60.43;102555.63;4838442;29;124686;-62
2021/10/24 03:11:40;;;;;;;12.02;5.82;;;;;;;8.47;60.30;102561.84;4841232;29;113493;-62
2021/10/24 03:14:09;;;;;;;9.82;5.72;;;;;;;8.46;60.20;102560.09;4843792;29;113674;-62
2021/10/24 03:16:36;;;;;;;9.40;5.93;;;;;;;8.44;60.13;102561.84;4841941;29;123195;-62
2021/10/24 03:19:04;;;;;;;13.48;5.20;;;;;;;8.40;60.33;102555.72;4843132;29;123363;-62
2021/10/24 03:21:32;;;;;;;9.98;5.88;;;;;;;8.36;60.26;102557.50;4846558;29;113510;-62
2021/10/24 03:24:01;;;;;;;9.68;5.25;;;;;;;8.32;60.27;102547.81;4842999;29;113446;-62
2021/10/24 03:26:29;;;;;;;9.25;5.38;;;;;;;8.29;60.29;102552.28;4841804;29;123625;-62
2021/10/24 03:28:58;;;;;;;10.27;4.80;;;;;;;8.25;60.21;102556.72;4846526;28;123122;-62
2021/10/24 03:31:26;;;;;;;9.48;5.60;;;;;;;8.22;60.04;102551.44;4854714;29;113655;-62
2021/10/24 03:33:54;;;;;;;8.35;5.20;;;;;;;8.19;60.38;102548.81;4854865;28;112865;-62
2021/10/24 03:36:23;;;;;;;9.50;5.40;;;;;;;8.19;60.76;102551.44;4855737;28;123141;-62
2021/10/24 03:38:50;;;;;;;9.27;5.22;;;;;;;8.18;60.30;102541.81;4847547;29;122989;-62
2021/10/24 03:41:18;;;;;;;8.68;5.32;;;;;;;8.17;60.32;102547.94;4840585;29;113478;-62
2021/10/24 03:43:45;;;;;;;9.68;5.07;;;;;;;8.16;60.48;102551.50;4857176;28;113360;-62
2021/10/24 03:46:15;;;;;;;9.32;5.45;;;;;;;8.15;60.77;102547.09;4857052;28;123265;-62
2021/10/24 03:48:42;;;;;;;10.63;5.18;;;;;;;8.15;60.55;102550.59;4857221;28;123016;-62
2021/10/24 03:51:10;;;;;;;10.40;5.55;;;;;;;8.14;60.50;102554.13;4855155;29;114714;-62
2021/10/24 03:53:37;;;;;;;9.48;4.93;;;;;;;8.14;60.62;102553.28;4866681;28;114315;-62
2021/10/24 03:56:05;;;;;;;7.68;4.75;;;;;;;8.12;60.63;102549.78;4857078;28;123087;-62
2021/10/24 03:58:39;;;;;;;8.50;5.03;;;;;;;8.09;60.42;102544.50;4855781;28;126444;-62
2021/10/24 04:01:06;;;;;;;9.80;5.18;;;;;;;8.09;60.38;102544.50;4848475;29;114077;-62
2021/10/24 04:03:34;;;;;;;9.57;4.97;;;;;;;8.07;60.63;102546.28;4837984;29;113220;-62
2021/10/24 04:06:06;;;;;;;10.35;5.28;;;;;;;8.06;60.66;102544.50;4850635;29;123311;-62
2021/10/24 04:08:33;;;;;;;9.90;5.20;;;;;;;8.04;60.88;102549.78;4856495;28;123269;-62
2021/10/24 04:11:00;;;;;;;9.63;4.72;;;;;;;8.04;60.63;102546.28;4848272;29;113299;-62
2021/10/24 04:13:28;;;;;;;8.05;4.55;;;;;;;8.03;60.74;102555.13;4850469;29;113413;-62
2021/10/24 04:15:57;;;;;;;8.75;5.20;;;;;;;8.02;60.53;102542.78;4853048;29;123564;-62
2021/10/24 04:19:03;;;;;;;7.77;4.60;;;;;;;7.99;60.51;102544.56;4833890;29;124515;-62
2021/10/24 04:21:32;;;;;;;8.43;4.93;;;;;;;7.98;60.63;102542.81;4815193;29;113380;-62
2021/10/24 04:23:59;;;;;;;8.93;4.78;;;;;;;7.96;60.70;102549.84;4845730;29;114373;-62
2021/10/24 04:26:27;;;;;;;9.13;4.88;;;;;;;7.95;60.68;102537.56;4854732;29;123253;-62
2021/10/24 04:28:56;;;;;;;6.75;4.22;;;;;;;7.94;60.74;102541.06;4855332;29;122349;-62
2021/10/24 04:31:23;;;;;;;8.45;4.90;;;;;;;7.94;60.63;102548.13;4854560;28;113794;-62
2021/10/24 04:33:51;;;;;;;7.93;4.75;;;;;;;7.92;60.86;102537.56;4850407;29;114396;-62
2021/10/24 04:36:18;;;;;;;10.40;5.13;;;;;;;7.90;60.47;102539.34;4837847;28;123742;-62
2021/10/24 04:38:46;;;;;;;9.43;4.75;;;;;;;7.88;60.64;102530.56;4855984;28;124113;-62
2021/10/24 04:41:14;;;;;;;6.60;4.55;;;;;;;7.86;60.75;102537.63;4854029;29;114348;-62
2021/10/24 04:43:41;;;;;;;8.45;4.65;;;;;;;7.84;60.72;102528.84;4852803;28;114132;-62
2021/10/24 04:46:13;;;;;;;11.05;5.20;;;;;;;7.81;60.51;102531.50;4853272;29;123736;-62
2021/10/24 04:48:41;;;;;;;9.02;4.78;;;;;;;7.79;60.88;102525.34;4850657;29;122850;-62
2021/10/24 04:51:08;;;;;;;9.32;4.90;;;;;;;7.77;60.59;102527.13;4852682;29;114604;-62
2021/10/24 04:53:35;;;;;;;7.85;5.00;;;;;;;7.76;60.51;102525.34;4849621;29;113241;-62
2021/10/24 04:56:03;;;;;;;7.15;4.40;;;;;;;7.74;60.81;102527.13;4851177;29;123479;-62
2021/10/24 04:58:33;;;;;;;9.65;4.78;;;;;;;7.72;60.49;102524.53;4848274;29;122999;-62
2021/10/24 05:01:02;;;;;;;6.85;4.07;;;;;;;7.70;60.52;102525.41;4849544;28;113313;-62
2021/10/24 05:03:30;;;;;;;6.72;4.25;;;;;;;7.67;60.76;102521.03;4849268;29;113778;-62
2021/10/24 05:05:57;;;;;;;10.98;4.43;;;;;;;7.68;60.63;102516.63;4852054;28;122974;-62
2021/10/24 05:08:24;;;;;;;8.98;4.60;;;;;;;7.66;60.54;102510.50;4847314;29;123939;-62
2021/10/24 05:10:51;;;;;;;10.23;4.95;;;;;;;7.66;60.85;102507.84;4856881;29;115459;-62
2021/10/24 05:13:18;;;;;;;9.77;4.57;;;;;;;7.65;60.51;102503.44;4850127;29;113895;-62
2021/10/24 05:15:45;;;;;;;9.20;4.65;;;;;;;7.65;60.76;102506.09;4853145;28;123839;-62
2021/10/24 05:18:13;;;;;;;10.00;4.55;;;;;;;7.63;60.66;102497.31;4852693;29;122968;-62
2021/10/24 05:20:42;;;;;;;8.75;4.60;;;;;;;7.62;60.76;102491.16;4855970;28;113668;-62
2021/10/24 05:23:10;;;;;;;9.75;5.22;;;;;;;7.60;60.54;102499.09;4845982;29;113115;-62
2021/10/24 05:25:54;;;;;;;9.05;4.55;;;;;;;7.59;60.44;102502.63;4849741;29;123666;-62
2021/10/24 05:28:22;;;;;;;12.52;4.63;;;;;;;7.57;60.61;102496.50;4852849;29;123087;-62
2021/10/24 05:30:50;;;;;;;9.07;4.68;;;;;;;7.56;60.53;102492.09;4835601;28;114378;-62
2021/10/24 05:33:18;;;;;;;10.70;4.80;;;;;;;7.56;60.61;102491.22;4849773;29;114074;-62
2021/10/24 05:36:14;;;;;;;7.95;4.50;;;;;;;7.53;60.84;102481.53;4853863;29;123072;-62
2021/10/24 05:38:41;;;;;;;7.95;4.85;;;;;;;7.51;60.84;102480.69;4855385;28;123026;-62
2021/10/24 05:41:13;;;;;;;7.85;4.70;;;;;;;7.49;60.92;102474.53;4835022;29;114031;-62
2021/10/24 05:43:40;;;;;;;7.05;4.50;;;;;;;7.49;60.95;102477.19;4851284;29;113111;-62
2021/10/24 05:46:09;;;;;;;6.95;4.40;;;;;;;7.47;60.96;102481.59;4849170;29;123344;-63
2021/10/24 05:48:37;;;;;;;8.40;4.43;;;;;;;7.47;60.91;102480.72;4855766;28;123042;-62
2021/10/24 05:51:10;;;;;;;10.13;4.95;;;;;;;7.45;60.73;102478.09;4855216;29;113490;-62
2021/10/24 05:53:39;;;;;;;8.50;4.65;;;;;;;7.44;60.93;102476.34;4852171;29;113077;-62
2021/10/24 05:56:13;;;;;;;9.47;4.73;;;;;;;7.44;60.82;102481.63;4852060;29;126742;-62
2021/10/24 05:58:43;;;;;;;10.75;5.15;;;;;;;7.42;60.94;102483.38;4846326;28;122824;-62
2021/10/24 06:01:26;;;;;;;9.52;5.00;;;;;;;7.42;60.65;102478.09;4851357;29;113310;-62
2021/10/24 06:04:16;;;;;;;9.70;5.10;;;;;;;7.42;60.71;102472.81;4852761;28;115227;-62
2021/10/24 06:07:19;;;;;;;7.90;5.07;;;;;;;7.40;60.67;102479.88;4835962;29;125042;-61
2021/10/24 06:09:52;;;;;;;8.63;4.85;;;;;;;7.38;60.66;102476.38;4852875;29;124231;-62
2021/10/24 06:13:02;;;;;;;6.68;4.72;;;;;;;7.36;60.83;102467.59;4846784;29;114630;-62
2021/10/24 06:15:14;;;;;;;8.95;5.10;;;;;;;7.35;60.98;102463.22;4853845;28;113899;-62
2021/10/24 06:17:43;;;;;;;9.48;4.82;;;;;;;7.34;60.76;102469.38;4846155;29;124412;-62
2021/10/24 06:20:11;;;;;;;9.23;4.65;;;;;;;7.33;60.74;102462.34;4853782;29;124799;-62
2021/10/24 06:22:40;;;;;;;8.85;4.80;;;;;;;7.33;60.63;102467.63;4849000;29;114414;-62
2021/10/24 06:25:13;;;;;;;11.68;4.93;;;;;;;7.31;60.68;102469.38;4853348;28;114054;-62
2021/10/24 06:27:42;;;;;;;7.93;4.88;;;;;;;7.29;60.99;102460.59;4857689;28;123334;-62
2021/10/24 06:30:13;;;;;;;8.32;4.75;;;;;;;7.29;61.01;102463.22;4854167;28;123805;-62
2021/10/24 06:32:59;;;;;;;9.63;5.43;;;;;;;7.27;60.73;102457.09;4851253;29;115244;-62
2021/10/24 06:35:45;;;;;;;;;;;;;;;7.26;60.67;102465.91;4842336;29;114884;-61
2021/10/24 06:38:32;;;;;;;10.57;4.88;;;;;;;7.24;60.64;102457.13;4844841;29;124811;-61
2021/10/24 06:41:22;;;;;;;10.63;4.93;;;;;;;7.24;61.03;102454.50;4841481;29;124504;-61
2021/10/24 06:44:03;;;;;;;10.32;5.05;;;;;;;7.21;61.08;102458.91;4848226;29;114484;-61
2021/10/24 06:47:08;;;;;;;9.82;5.18;;;;;;;7.20;61.07;102451.88;4846461;29;113945;-62
2021/10/24 06:49:54;;;;;;;10.18;5.07;;;;;;;7.19;60.89;102450.09;4842700;29;124831;-62
2021/10/24 06:52:47;;;;;;;8.85;5.20;;;;;;;7.21;61.20;102458.91;4823861;29;124912;-62
2021/10/24 06:55:34;;;;;;;9.52;5.43;;;;;;;7.26;61.29;102460.63;4839081;29;114845;-62
2021/10/24 06:58:22;;;;;;;9.18;5.32;;;;;;;7.27;61.05;102451.81;4841150;29;114662;-62
2021/10/24 07:01:08;;;;;;;11.35;5.55;;;;;;;7.31;61.30;102456.19;4845812;29;124832;-62
2021/10/24 07:03:53;;;;;;;12.50;5.80;;;;;;;7.34;61.45;102449.16;4859303;29;124949;-62
2021/10/24 07:06:24;;;;;;;11.65;5.88;;;;;;;7.37;61.16;102453.53;4859582;29;115717;-62
2021/10/24 07:09:26;;;;;;;10.38;5.50;;;;;;;7.40;61.00;102453.50;4841973;28;114748;-62
2021/10/24 07:12:10;;;;;;;12.48;6.20;;;;;;;7.44;61.37;102455.28;4847003;29;124330;-62
2021/10/24 07:14:38;;;;;;;9.93;5.45;;;;;;;7.49;61.36;102453.44;4857679;29;123719;-62
2021/10/24 07:17:05;;;;;;;11.38;5.93;;;;;;;7.53;61.65;102449.91;4849185;29;115465;-62
2021/10/24 07:19:33;;;;;;;10.73;5.85;;;;;;;7.56;61.41;102452.53;4856657;29;115038;-62
2021/10/24 07:22:06;;;;;;;12.20;6.28;;;;;;;7.60;61.69;102443.72;4856114;28;123310;-62
2021/10/24 07:24:55;;;;;;;12.48;6.35;;;;;;;7.66;61.41;102449.84;4841989;29;125332;-62
2021/10/24 07:27:23;;;;;;;11.82;6.68;;;;;;;7.70;61.79;102446.28;4845701;29;114179;-63
2021/10/24 07:29:50;;;;;;;12.70;6.95;;;;;;;7.77;61.80;102453.28;4850742;29;114572;-63
2021/10/24 07:32:19;;;;;;;12.65;7.13;;;;;;;7.79;61.67;102446.22;4854876;28;123285;-63
2021/10/24 07:34:50;;;;;;;12.15;6.65;;;;;;;7.86;61.85;102436.53;4854394;28;123816;-63
2021/10/24 07:37:18;;;;;;;14.63;7.03;;;;;;;7.91;61.65;102438.22;4858303;28;113526;-63
2021/10/24 07:39:45;;;;;;;11.93;7.10;;;;;;;7.96;61.76;102428.50;4846456;29;113232;-63
2021/10/24 07:42:14;;;;;;;14.63;7.00;;;;;;;8.03;62.07;102423.19;4853005;28;122889;-63
2021/10/24 07:44:42;;;;;;;13.13;7.25;;;;;;;8.08;62.22;102421.34;4849467;29;123478;-63
2021/10/24 07:47:12;;;;;;;12.70;6.90;;;;;;;8.15;62.26;102423.91;4852637;29;114346;-63
2021/10/24 07:49:41;;;;;;;10.70;6.70;;;;;;;8.22;62.31;102419.47;4838918;29;113144;-63
2021/10/24 07:52:11;;;;;;;12.45;6.90;;;;;;;8.30;62.35;102417.63;4852757;28;123229;-63
2021/10/24 07:54:39;;;;;;;13.15;6.72;;;;;;;8.39;62.27;102412.25;4857451;29;122955;-63
2021/10/24 07:57:09;;;;;;;12.95;7.07;;;;;;;8.47;62.37;102419.25;4855943;28;113579;-62
2021/10/24 07:59:37;;;;;;;14.93;7.35;;;;;;;8.55;62.63;102414.75;4831909;29;113302;-63
2021/10/24 08:02:04;;;;;;;17.63;7.38;;;;;;;8.61;62.38;102417.34;4840924;29;123166;-63
2021/10/24 08:04:35;;;;;;;13.40;6.72;;;;;;;8.70;62.60;102417.22;4857759;28;123213;-63
2021/10/24 08:07:05;;;;;;;14.90;7.20;;;;;;;8.79;62.33;102404.78;4857489;28;114571;-62
2021/10/24 08:09:34;;;;;;;13.05;6.68;;;;;;;8.86;62.47;102406.47;4857797;28;114650;-62
2021/10/24 08:12:01;;;;;;;14.48;7.13;;;;;;;8.95;62.69;102406.34;4854746;29;122969;-62
2021/10/24 08:14:32;;;;;;;15.80;7.40;;;;;;;9.03;62.15;102399.19;4837745;29;123130;-63
2021/10/24 08:17:00;;;;;;;15.82;6.95;;;;;;;9.12;62.82;102393.78;4856755;29;113918;-62
2021/10/24 08:19:28;;;;;;;13.68;7.20;;;;;;;9.21;62.38;102397.19;4857239;28;113236;-62
2021/10/24 08:22:03;;;;;;;13.48;6.97;;;;;;;9.30;62.35;102391.75;4855541;29;123338;-62
2021/10/24 08:24:34;;;;;;;16.60;7.57;;;;;;;9.39;62.37;102391.63;4856614;28;122972;-62
2021/10/24 08:27:15;;;;;;;13.95;7.10;;;;;;;9.46;62.55;102382.72;4845702;29;113715;-62
2021/10/24 08:29:42;;;;;;;12.52;7.50;;;;;;;9.54;62.08;102386.09;4857009;29;113154;-62
2021/10/24 08:32:45;;;;;;;13.98;6.13;;;;;;;9.64;62.46;102385.94;4842253;29;124087;-63
2021/10/24 08:35:12;;;;;;;12.02;6.75;;;;;;;9.70;62.33;102386.75;4853833;29;122793;-63
2021/10/24 08:37:40;;;;;;;12.57;6.85;;;;;;;9.79;62.49;102380.41;4851911;29;114472;-62
2021/10/24 08:40:08;;;;;;;15.88;7.65;;;;;;;9.87;62.10;102378.50;4842108;29;114061;-63
2021/10/24 08:42:39;;;;;;;12.90;7.32;;;;;;;9.97;62.40;102373.06;4848944;29;123953;-63
2021/10/24 08:45:07;;;;;;;14.68;6.95;;;;;;;10.06;62.36;102367.59;4836376;29;123756;-63
2021/10/24 08:47:35;;;;;;;12.55;6.85;;;;;;;10.15;62.16;102362.09;4849132;29;114158;-63
2021/10/24 08:50:03;;;;;;;11.90;6.85;;;;;;;10.25;62.27;102366.34;4850455;29;114490;-63
2021/10/24 08:52:35;;;;;;;14.60;7.00;;;;;;;10.35;62.19;102363.56;4836289;29;124794;-63
2021/10/24 08:55:02;;;;;;;11.60;6.22;;;;;;;10.44;62.14;102352.78;4836184;29;124201;-63
2021/10/24 08:57:30;;;;;;;13.88;6.80;;;;;;;10.52;61.86;102356.13;4855489;29;115576;-63
2021/10/24 08:59:58;;;;;;;15.23;6.28;;;;;;;10.60;61.86;102354.19;4841202;29;113971;-62
2021/10/24 09:02:54;;;;;;;11.77;6.95;;;;;;;10.67;61.83;102354.94;4838224;29;123909;-62
2021/10/24 09:05:29;;;;;;;12.75;7.10;;;;;;;10.79;61.55;102348.50;4837939;29;124737;-62
2021/10/24 09:07:57;;;;;;;14.17;6.10;;;;;;;10.88;61.62;102348.31;4844813;29;114186;-62
2021/10/24 09:10:38;;;;;;;11.73;6.43;;;;;;;10.96;61.36;102346.34;4857984;29;114140;-63
2021/10/24 09:13:10;;;;;;;12.02;6.63;;;;;;;11.03;61.41;102342.66;4842461;29;124047;-62
2021/10/24 09:15:57;;;;;;;11.18;6.90;;;;;;;11.14;61.33;102346.84;4856119;29;123514;-63
2021/10/24 09:18:43;;;;;;;12.27;6.78;;;;;;;11.25;61.35;102337.72;4844274;29;115235;-63
2021/10/24 09:21:20;;;;;;;10.38;6.22;;;;;;;11.34;61.20;102339.31;4855572;28;113389;-63
2021/10/24 09:23:53;;;;;;;10.90;6.38;;;;;;;11.43;61.23;102340.84;4854399;29;124501;-62
2021/10/24 09:26:23;;;;;;;11.80;6.38;;;;;;;11.51;61.20;102330.94;4856642;29;124672;-63
2021/10/24 09:29:02;;;;;;;13.02;6.32;;;;;;;11.59;61.04;102325.44;4850411;29;114484;-62
2021/10/24 09:31:37;;;;;;;11.45;6.65;;;;;;;11.67;60.84;102318.13;4846737;29;116474;-63
2021/10/24 09:34:20;;;;;;;11.48;5.90;;;;;;;11.77;60.94;102318.75;4856701;29;124280;-63
2021/10/24 09:36:51;;;;;;;11.45;6.50;;;;;;;11.88;60.68;102324.66;4858664;28;122778;-62
2021/10/24 09:39:37;;;;;;;14.05;7.05;;;;;;;11.98;60.81;102317.34;4856887;29;115314;-62
2021/10/24 09:42:17;;;;;;;13.57;6.22;;;;;;;12.09;60.66;102320.56;4837584;29;113911;-62
2021/10/24 09:45:01;;;;;;;10.82;6.15;;;;;;;12.18;60.78;102315.00;4858988;28;123890;-61
2021/10/24 09:47:28;;;;;;;13.63;6.32;;;;;;;12.27;60.36;102313.88;4842442;29;122641;-61
2021/10/24 09:49:55;;;;;;;11.00;6.43;;;;;;;12.36;60.20;102318.06;4855689;28;114415;-62
2021/10/24 09:52:34;;;;;;;10.35;5.70;;;;;;;12.44;60.25;102311.59;4852613;29;115001;-61
2021/10/24 09:55:16;;;;;;;11.02;6.40;;;;;;;12.53;60.13;102313.13;4854961;29;123233;-62
2021/10/24 09:57:44;;;;;;;10.82;6.10;;;;;;;12.63;59.82;102317.25;4843643;29;123871;-62
2021/10/24 10:00:13;;;;;;;12.43;6.50;;;;;;;12.73;59.81;102311.66;4842472;29;114325;-62
2021/10/24 10:02:42;;;;;;;9.80;5.70;;;;;;;12.83;59.90;102307.81;4852995;29;114326;-63
2021/10/24 10:05:09;;;;;;;10.60;6.22;;;;;;;12.92;59.76;102302.22;4853345;29;124363;-63
2021/10/24 10:07:36;;;;;;;11.60;5.53;;;;;;;13.03;59.44;102305.41;4850404;29;124197;-63
2021/10/24 10:10:04;;;;;;;12.93;6.18;;;;;;;13.13;59.27;102310.41;4846409;29;113160;-63
2021/10/24 10:12:34;;;;;;;8.82;5.38;;;;;;;13.22;59.15;102307.44;4852941;29;114063;-63
2021/10/24 10:15:03;;;;;;;9.32;5.60;;;;;;;13.32;59.04;102311.59;4855861;29;124573;-63
2021/10/24 10:17:31;;;;;;;10.10;5.32;;;;;;;13.41;58.91;102300.63;4853920;29;124747;-63
2021/10/24 10:20:27;;;;;;;11.88;5.95;;;;;;;13.52;58.77;102299.41;4833920;29;113109;-63
2021/10/24 10:23:08;;;;;;;10.13;5.33;;;;;;;13.60;58.74;102294.69;4853542;29;114386;-63
2021/10/24 10:25:38;;;;;;;10.07;5.70;;;;;;;13.68;58.53;102303.28;4854691;29;124114;-63
2021/10/24 10:28:08;;;;;;;13.05;6.18;;;;;;;13.74;58.38;102292.41;4847117;29;123553;-62
2021/10/24 10:30:43;;;;;;;8.98;5.25;;;;;;;13.82;58.19;102295.69;4846815;29;114673;-64
2021/10/24 10:33:30;;;;;;;9.55;5.25;;;;;;;13.93;57.94;102297.09;4847819;29;114712;-62
2021/10/24 10:36:00;;;;;;;9.85;4.93;;;;;;;14.02;57.94;102286.09;4849010;28;123530;-62
2021/10/24 10:38:36;;;;;;;10.35;5.75;;;;;;;14.10;57.89;102292.00;4851948;29;124299;-62
2021/10/24 10:41:05;;;;;;;10.15;5.32;;;;;;;14.17;57.58;102285.53;4849367;29;115292;-62
2021/10/24 10:43:34;;;;;;;10.75;5.60;;;;;;;14.25;57.44;102292.38;4850757;29;115313;-63
2021/10/24 10:46:05;;;;;;;12.07;5.28;;;;;;;14.31;57.09;102286.81;4850275;29;123881;-62
2021/10/24 10:48:32;;;;;;;8.77;5.00;;;;;;;14.36;56.92;102279.53;4848529;29;123981;-62
2021/10/24 10:51:15;;;;;;;8.32;4.95;;;;;;;14.39;56.75;102279.38;4849999;29;114551;-63
2021/10/24 10:53:45;;;;;;;8.35;5.40;;;;;;;14.44;56.77;102281.91;4846352;29;114690;-63
2021/10/24 10:56:12;;;;;;;11.13;5.43;;;;;;;14.50;56.77;102282.50;4855863;29;124400;-62
2021/10/24 10:58:42;;;;;;;8.23;5.57;;;;;;;14.59;56.46;102282.19;4853317;29;123866;-62
2021/10/24 11:01:34;;;;;;;8.18;5.35;;;;;;;14.68;56.56;102274.78;4849269;29;115097;-62
2021/10/24 11:04:07;;;;;;;10.00;5.18;;;;;;;14.78;56.25;102276.13;4848426;28;114351;-62
2021/10/24 11:06:36;;;;;;;12.00;5.60;;;;;;;14.84;56.32;102275.88;4852604;29;124339;-62
2021/10/24 11:09:06;;;;;;;7.93;5.55;;;;;;;14.91;55.94;102277.38;4847823;29;123908;-62
2021/10/24 11:14:15;;;;;;;10.00;5.60;;;;;;;15.06;55.64;102275.91;4849713;29;114491;-62
2021/10/24 11:16:48;;;;;;;9.73;5.50;;;;;;;15.11;55.63;102281.06;4849360;29;124811;-62
2021/10/24 11:19:29;;;;;;;8.07;4.93;;;;;;;15.18;55.49;102277.19;4851414;29;123908;-62
2021/10/24 11:22:09;;;;;;;7.68;5.03;;;;;;;15.24;55.32;102279.63;4847017;29;113633;-62
2021/10/24 11:24:40;;;;;;;8.10;5.00;;;;;;;15.31;55.15;102281.09;4849802;29;113996;-62
2021/10/24 11:27:12;;;;;;;10.52;5.00;;;;;;;15.39;55.01;102262.09;4853211;29;124519;-62
2021/10/24 11:30:06;;;;;;;7.47;5.00;;;;;;;15.47;55.14;102265.28;4857866;28;123895;-62
2021/10/24 11:32:35;;;;;;;7.63;5.13;;;;;;;15.56;54.97;102258.69;4850520;29;115641;-62
2021/10/24 11:35:17;;;;;;;9.35;5.35;;;;;;;15.64;54.82;102261.03;4851345;28;113960;-62
2021/10/24 11:37:58;;;;;;;8.43;4.43;;;;;;;15.71;54.48;102258.03;4846726;29;124151;-62
2021/10/24 11:40:30;;;;;;;9.55;5.32;;;;;;;15.76;54.43;102250.72;4846291;29;124060;-62
2021/10/24 11:43:02;;;;;;;10.27;5.13;;;;;;;15.85;54.43;102253.91;4851381;28;115001;-62
2021/10/24 11:45:35;;;;;;;9.30;4.72;;;;;;;15.93;54.14;102251.75;4851919;29;114784;-62